SBGR

Sao Paulo/Guarulhos International Airport

Airport
ICAO code
SBGR
IATA Code
GRU
Summary
ICAO Region
CARSAM
ICAO Territory
Location

Guarulhos, São Paulo

Serving
São Paulo
Elevation
2459 ft
Coordinates
23° 26' 6" S , 46° 28' 24" W
KCC
Metar
Observation
SBGR 090100Z 08008KT 9999 SCT013 BKN016 20/18 Q1018
Station
Guarulhos Civ / Mil
Date/Time
2023-02-09 01:00:00
Wind direction
80°
Wind speed
08 kts
Lowest cloud amount
scattered clouds
Temperature
20°C
Dew point
18°C
Humidity
88%
QNH
1018 hPa
Weather condition
n/a

São Paulo/Guarulhos–Governador André Franco Montoro International Airport, often referred to as GRU Airport, or simply GRU, is the primary international airport serving São Paulo. It is popularly known locally as Cumbica Airport.

Climatology

Humid “subtropical” climate (Köppen climate classification Cfa)

Runways

Designator Length Width Surface Rops
09R/27L 3000 45 ASP Yes/Yes
09L/27R 3700 45 ASP Yes/Yes

Airport map

Aerial View

SKYbrary Partners:

Safety knowledge contributed by: